CheckWX is a tool to help pilots better visualize weather data.  It is not intended as a substitute for an official pre-flight weather briefing.

00:54:49 UTC

ESUP METAR
Pajala Airport
Sweden
Current

35 mins ago

ESUP 240020Z AUTO 20012KT 9999 FEW017/// SCT030/// 01/M05 Q0976
Observed
Mar-24 @ 00:20 UTC
Wind
  • 200° at 12 KTS
Visibility
10,000+ meters
Flight Rules
VFR
Cloud Levels
  • Few at 1,700' AGL
  • Scattered at 3,000' AGL
Temperature
C / 34°F
Dewpoint
-5°C / 23°F
Humidity
65%
Altimeter
28.82" Hg
Pressure
975.92 hPa
Previous

1 hour ago

ESUP 232350Z AUTO 20015KT 9999 FEW027/// SCT032/// 01/M05 Q0977
Observed
Mar-23 @ 23:50 UTC
Wind
  • 200° at 15 KTS
Visibility
10,000+ meters
Flight Rules
VFR
Cloud Levels
  • Few at 2,700' AGL
  • Scattered at 3,200' AGL
Temperature
C / 34°F
Dewpoint
-5°C / 23°F
Humidity
65%
Altimeter
28.85" Hg
Pressure
976.92 hPa
Previous

2 hours ago

ESUP 232320Z AUTO 21015G28KT 9999 FEW035/// 01/M05 Q0977
Observed
Mar-23 @ 23:20 UTC
Wind
  • 210° at 15 KTS
  • Gusting to 28 KTS
Visibility
10,000+ meters
Flight Rules
VFR
Cloud Levels
  • Few at 3,500' AGL
Temperature
C / 34°F
Dewpoint
-5°C / 23°F
Humidity
65%
Altimeter
28.85" Hg
Pressure
976.92 hPa